Impacts METAR Board
IDs:

KLAX - Los Angeles Intl, CA, US

Updated at: 2100 UTC 21 May 2022
Potential Impact None Slight Moderate High
Time 21/09Z 21/10Z 21/11Z 21/12Z 21/13Z 21/14Z 21/15Z 21/16Z 21/17Z 21/18Z 21/19Z 21/20Z 21/21Z
Temp61 61 62 61 61 62 62 62 64 67 66 66 69
Dewpt57 56 54 54 55 55 56 56 54 55 54 54 53
Altim29.87 29.86 29.87 29.88 29.89 29.90 29.92 29.94 29.95 29.96 29.97 29.97 29.97
VIS10 10 10 10 10 10 10 10 10 10 10 10 10
CIG22 13 28 20 21 35 24 33 33 48 47 50 50
CoverBKNBKNBKNOVCBKNOVCOVCOVCOVCBKNBKNBKNBKN
FltCatMVFRMVFRMVFRMVFRMVFRVFRMVFRVFRVFRVFRVFRVFRVFR
WX--------------------------
WDir24026026020025002302202500230250230
WSpd6 4 4 4 5 3 4 4 7 6 9 9 11
WGst-- -- -- -- -- -- -- -- -- -- -- -- --
Raw hourly METARs
KLAX 210853Z 24006KT 10SM FEW005 FEW016 BKN022 16/14 A2987 RMK AO2 SLP114 T01610139 50000
KLAX 210953Z 26004KT 10SM SCT005 BKN013 BKN025 16/13 A2986 RMK AO2 SLP111 T01610133
KLAX 211053Z 26004KT 10SM FEW005 FEW019 BKN028 17/12 A2987 RMK AO2 SLP113 T01670122
KLAX 211153Z 20004KT 10SM BKN020 OVC031 16/12 A2988 RMK AO2 SLP116 T01610122 10167 20161 53002
KLAX 211253Z 25005KT 10SM FEW005 BKN021 BKN030 16/13 A2989 RMK AO2 SLP119 T01610128
KLAX 211353Z VRB03KT 10SM SCT022 BKN035 OVC046 17/13 A2990 RMK AO2 SLP125 T01670128
KLAX 211453Z 23004KT 10SM SCT013 BKN024 OVC045 17/13 A2992 RMK AO2 SLP131 T01670133 53015
KLAX 211553Z 22004KT 10SM SCT023 BKN033 OVC042 17/13 A2994 RMK AO2 SLP137 T01670133
KLAX 211653Z 25007KT 10SM FEW015 BKN033 OVC042 18/12 A2995 RMK AO2 SLP139 T01780122
KLAX 211753Z VRB06KT 10SM FEW015 SCT033 BKN048 19/13 A2996 RMK AO2 SLP142 T01940128 10194 20161 51012
KLAX 211853Z 23009KT 10SM FEW015 SCT033 BKN047 19/12 A2997 RMK AO2 SLP146 T01890122
KLAX 211953Z 25009KT 10SM SCT033 BKN050 19/12 A2997 RMK AO2 SLP147 T01890122
KLAX 212053Z 23011KT 10SM SCT033 BKN050 21/12 A2997 RMK AO2 SLP148 T02060117 51006



Page loaded:  21:25 UTC  |   02:25 PM Pacific  |   03:25 PM Mountain  |   04:25 PM Central  |   05:25 PM Eastern

 

ADVISORIES

FORECASTS

FORECASTS

OBSERVATIONS

USER TOOLS

ABOUT US